This is the latest recevied weather packets stored in our database for station/object OE5HCE. If no packets are shown the sender has not sent any weather packets the latest 10 day(s).
| Time | Temp. | Humidity | Pressure | Rain* | Wind** | Luminosity | Snow |
|---|---|---|---|---|---|---|---|
| 1787508029 | 21.11° C | 56% | 1021.8 hPa | 0 mm | - | 5 W/m² | - |
| 1787507109 | 21.67° C | 54% | 1021.7 hPa | 0 mm | - | 11 W/m² | - |
| 1787506209 | 22.78° C | 51% | 1021.6 hPa | 0 mm | - | 18 W/m² | - |
| 1787505308 | 23.89° C | 51% | 1021.6 hPa | 0 mm | - | 32 W/m² | - |
| 1787504407 | 24.44° C | 50% | 1021.6 hPa | 0 mm | - | 32 W/m² | - |
| 1787503513 | 24.44° C | 48% | 1021.6 hPa | 0 mm | - | 132 W/m² | - |
| 1787502610 | 25° C | 46% | 1021.6 hPa | 0 mm | - | 162 W/m² | - |
| 1787501708 | 25° C | 45% | 1021.7 hPa | 0 mm | - | 232 W/m² | - |
| 1787500806 | 25.56° C | 45% | 1021.6 hPa | 0 mm | - | 271 W/m² | - |
| 1787499905 | 26.67° C | 44% | 1021.5 hPa | 0 mm | - | 174 W/m² | - |
| 1787499004 | 26.11° C | 43% | 1021.6 hPa | 0 mm | - | 378 W/m² | - |
| 1787498105 | 26.11° C | 45% | 1021.6 hPa | 0 mm | - | 432 W/m² | - |
| 1787497202 | 25.56° C | 46% | 1021.7 hPa | 0 mm | - | 482 W/m² | - |
| 1787496301 | 25.56° C | 46% | 1021.7 hPa | 0 mm | - | 501 W/m² | - |
| 1787495459 | 26.11° C | 47% | 1021.8 hPa | 0 mm | - | 612 W/m² | - |
| 1787494558 | 24.44° C | 48% | 1021.9 hPa | 0 mm | - | 422 W/m² | - |
| 1787493656 | 23.33° C | 50% | 1021.9 hPa | 0 mm | - | 251 W/m² | - |
| 1787492756 | 26.11° C | 45% | 1022 hPa | 0 mm | - | 568 W/m² | - |
| 1787491863 | 24.44° C | 48% | 1022 hPa | 0 mm | - | 587 W/m² | - |
| 1787490952 | 25° C | 45% | 1022.1 hPa | 0 mm | - | 745 W/m² | - |
| 1787490058 | 25° C | 47% | 1022 hPa | 0 mm | - | 666 W/m² | - |
| 1787489147 | 23.89° C | 50% | 1022.2 hPa | 0 mm | - | 833 W/m² | - |
| 1787488250 | 23.89° C | 47% | 1022.2 hPa | 0 mm | - | 482 W/m² | - |
| 1787487345 | 23.33° C | 48% | 1022.2 hPa | 0 mm | - | 158 W/m² | - |
| 1787486445 | 23.89° C | 46% | 1022.4 hPa | 0 mm | - | 740 W/m² | - |
* Rain latest hour (hover to see other rain measurements)
** Current wind speed in m/s (hover to see current wind gust speed)